Delanson, New York
Current Conditions -  °F | °C
As of 12:15 PM on Saturday 25 Oct 2014 (Local Time) from KNY0 Reporting Station
Overcast Overcast  
Wind Chill: 52°   Ceiling: 5500
Heat Index: 52°   Visibility: 10mi
Dew Point: 43°   Wind: 9mph
Humidity: 72%   Direction: 230°SW
Pressure: 29.74"   Gusts: NA
Location:  42.75°N, 74.19°W
Report Text: KNY0 251615Z AUTO 23008KT 10SM OVC055 11/06 A2974 RMK AO2 T01110063
Loading
Personal Weather Stations






























Interactive Weather Map
Tropical Storm Tracking
New forecast layout! Learn more

10-Day Weather Forecast

Advertisements
Track Severe Weather on mobile